Aérodrome :
LOGIN :

S'inscrire | Disclaimer

   EN    FR    IT 

 










Légende :    VFR   VFR Marginal   IFR   IFR Intensif   IFR Très Intensif
Visi : 
Plafond : 
>= 8 km
>= 3000ft
5 à 8 km
1000 à 3000 ft
1500m à 5 km
500 à 1000 ft
800 à 1500m
200 à 500 ft
< 800m
< 200 ft
Symboles :   Orages  Brouillard  Fortes neiges  Fortes précipitations  Vent > 20 kt
SIGMETs :   Divers  Orages  Givrage  Turbulence  Onde Orograph.  Cendres Volcan.






- Altitude de l'aérodrome : 184 ft
- Code IATA : BRU


EBBR - Bruxelles

DERNIER METAR :
  • 272050Z 20014KT 9999 SCT012 BKN025 08/06 Q0995 NOSIG

METARs EXPIRÉS :
  • 272020Z 19014KT 8000 -RA SCT005 BKN010 07/06 Q0996 NOSIG
  • 271950Z 17011KT 9999 -RA BKN016 07/06 Q0996 NOSIG
  • 271920Z 17012KT 9999 -RA BKN018 08/06 Q0997 NOSIG
  • 271850Z 17011KT 9999 -RA FEW016 BKN025 08/06 Q0998 NOSIG
  • 271820Z 18011KT 9999 FEW016 BKN040 08/06 Q0999 NOSIG
  • 271750Z 18011KT 9999 BKN016 08/06 Q1000 NOSIG

TAF COR TAF EBBR
Valide du 27 à 18h jusqu'au 29 à 00h UTC


271713Z 2718/2824 19012KT 9999 SCT012 BKN020
TEMPO 2718/2721 20015G25KT 4000 RA SHRA SCT009 BKN014TCU
BECMG 2721/2723 22015G25KT
PROB30
TEMPO 2801/2805 4500 SHRA
TEMPO 2805/2809 4000 SHRASN SCT009 BKN014TCU
PROB30
TEMPO 2805/2809 2500 SHSNRA SCT006 BKN010TCU



MET'MAP, la Météo Aéronautique d'un coup d'oeil ! - Copyright ORBIFLY Décembre 2007 - Disclaimer

ORBIFLY MET'MAP TEAM :

Programmation & Développement : Alexandra Zaïnal
Sur une idée originale de : Baudouin d'Aumeries
Assistance à la programmation : Marc-Olivier Méhu
Soutien technique & logistique : Manuel Goepfert

Contact : metmap@orbifly.com




SOURCES & CREDITS :

   NOAA